sensor_id;sensor_type;location;lat;lon;timestamp;P1;durP1;ratioP1;P2;durP2;ratioP2
54271;SDS011;40184;53.362;5.216;2023-03-14T00:02:18;50.08;;;10.23;;
54271;SDS011;40184;53.362;5.216;2023-03-14T00:04:44;57.33;;;11.48;;
54271;SDS011;40184;53.362;5.216;2023-03-14T00:07:10;51.80;;;9.45;;
54271;SDS011;40184;53.362;5.216;2023-03-14T00:09:36;57.38;;;10.80;;
54271;SDS011;40184;53.362;5.216;2023-03-14T00:12:02;62.05;;;12.45;;
54271;SDS011;40184;53.362;5.216;2023-03-14T00:14:29;58.58;;;10.18;;
54271;SDS011;40184;53.362;5.216;2023-03-14T00:16:56;44.03;;;11.02;;
54271;SDS011;40184;53.362;5.216;2023-03-14T00:19:21;53.90;;;11.43;;
54271;SDS011;40184;53.362;5.216;2023-03-14T00:21:47;63.53;;;11.77;;
54271;SDS011;40184;53.362;5.216;2023-03-14T00:24:13;54.58;;;10.73;;
54271;SDS011;40184;53.362;5.216;2023-03-14T00:26:38;64.25;;;10.80;;
54271;SDS011;40184;53.362;5.216;2023-03-14T00:29:04;51.10;;;10.18;;
54271;SDS011;40184;53.362;5.216;2023-03-14T00:31:30;56.78;;;9.95;;
54271;SDS011;40184;53.362;5.216;2023-03-14T00:33:55;55.30;;;10.95;;
54271;SDS011;40184;53.362;5.216;2023-03-14T00:36:21;63.72;;;16.48;;
54271;SDS011;40184;53.362;5.216;2023-03-14T00:38:49;52.58;;;10.10;;
54271;SDS011;40184;53.362;5.216;2023-03-14T00:41:19;51.38;;;10.20;;
54271;SDS011;40184;53.362;5.216;2023-03-14T00:43:50;57.00;;;10.73;;
54271;SDS011;40184;53.362;5.216;2023-03-14T00:46:16;47.10;;;10.82;;
54271;SDS011;40184;53.362;5.216;2023-03-14T00:48:43;60.33;;;12.60;;
54271;SDS011;40184;53.362;5.216;2023-03-14T00:51:10;67.15;;;12.32;;
54271;SDS011;40184;53.362;5.216;2023-03-14T00:53:39;58.65;;;10.27;;
54271;SDS011;40184;53.362;5.216;2023-03-14T00:56:05;52.35;;;11.02;;
54271;SDS011;40184;53.362;5.216;2023-03-14T00:58:34;51.05;;;10.25;;
54271;SDS011;40184;53.362;5.216;2023-03-14T01:01:04;55.67;;;9.90;;
54271;SDS011;40184;53.362;5.216;2023-03-14T01:03:32;68.72;;;13.18;;
54271;SDS011;40184;53.362;5.216;2023-03-14T01:06:14;56.35;;;11.38;;
54271;SDS011;40184;53.362;5.216;2023-03-14T01:08:47;54.75;;;10.27;;
54271;SDS011;40184;53.362;5.216;2023-03-14T01:11:14;43.80;;;9.40;;
54271;SDS011;40184;53.362;5.216;2023-03-14T01:13:42;56.38;;;9.95;;
54271;SDS011;40184;53.362;5.216;2023-03-14T01:16:09;43.10;;;9.85;;
54271;SDS011;40184;53.362;5.216;2023-03-14T01:18:36;50.20;;;9.93;;
54271;SDS011;40184;53.362;5.216;2023-03-14T01:21:03;43.42;;;9.40;;
54271;SDS011;40184;53.362;5.216;2023-03-14T01:23:34;43.37;;;10.63;;
54271;SDS011;40184;53.362;5.216;2023-03-14T01:26:00;50.40;;;10.00;;
54271;SDS011;40184;53.362;5.216;2023-03-14T01:28:25;42.70;;;8.77;;
54271;SDS011;40184;53.362;5.216;2023-03-14T01:30:51;50.70;;;9.57;;
54271;SDS011;40184;53.362;5.216;2023-03-14T01:33:17;52.40;;;11.77;;
54271;SDS011;40184;53.362;5.216;2023-03-14T01:35:42;50.90;;;11.18;;
54271;SDS011;40184;53.362;5.216;2023-03-14T01:38:08;48.95;;;11.38;;
54271;SDS011;40184;53.362;5.216;2023-03-14T01:40:33;59.67;;;12.80;;
54271;SDS011;40184;53.362;5.216;2023-03-14T01:48:31;68.80;;;9.75;;
54271;SDS011;40184;53.362;5.216;2023-03-14T01:51:01;47.22;;;10.73;;
54271;SDS011;40184;53.362;5.216;2023-03-14T01:53:27;50.92;;;8.45;;
54271;SDS011;40184;53.362;5.216;2023-03-14T01:55:54;67.57;;;12.95;;
54271;SDS011;40184;53.362;5.216;2023-03-14T01:58:24;62.42;;;11.45;;
54271;SDS011;40184;53.362;5.216;2023-03-14T02:00:56;65.22;;;11.15;;
54271;SDS011;40184;53.362;5.216;2023-03-14T02:03:23;58.10;;;11.65;;
54271;SDS011;40184;53.362;5.216;2023-03-14T02:05:50;64.85;;;15.75;;
54271;SDS011;40184;53.362;5.216;2023-03-14T02:08:19;52.88;;;10.95;;
54271;SDS011;40184;53.362;5.216;2023-03-14T02:10:47;79.43;;;12.07;;
54271;SDS011;40184;53.362;5.216;2023-03-14T02:13:14;69.05;;;11.35;;
54271;SDS011;40184;53.362;5.216;2023-03-14T02:15:43;59.53;;;9.95;;
54271;SDS011;40184;53.362;5.216;2023-03-14T02:18:09;67.50;;;12.77;;
54271;SDS011;40184;53.362;5.216;2023-03-14T02:20:51;56.92;;;11.40;;
54271;SDS011;40184;53.362;5.216;2023-03-14T02:23:29;62.88;;;11.20;;
54271;SDS011;40184;53.362;5.216;2023-03-14T02:26:20;56.97;;;10.38;;
54271;SDS011;40184;53.362;5.216;2023-03-14T02:28:51;60.63;;;11.60;;
54271;SDS011;40184;53.362;5.216;2023-03-14T02:31:18;66.72;;;12.52;;
54271;SDS011;40184;53.362;5.216;2023-03-14T02:33:46;64.43;;;12.75;;
54271;SDS011;40184;53.362;5.216;2023-03-14T02:36:12;48.78;;;9.48;;
54271;SDS011;40184;53.362;5.216;2023-03-14T02:41:49;62.63;;;12.57;;
54271;SDS011;40184;53.362;5.216;2023-03-14T02:44:14;61.67;;;11.48;;
54271;SDS011;40184;53.362;5.216;2023-03-14T02:46:40;66.00;;;11.20;;
54271;SDS011;40184;53.362;5.216;2023-03-14T02:49:07;73.03;;;12.07;;
54271;SDS011;40184;53.362;5.216;2023-03-14T02:51:35;56.78;;;12.68;;
54271;SDS011;40184;53.362;5.216;2023-03-14T02:54:02;60.22;;;11.18;;
54271;SDS011;40184;53.362;5.216;2023-03-14T02:56:27;69.35;;;10.98;;
54271;SDS011;40184;53.362;5.216;2023-03-14T02:58:53;57.28;;;10.70;;
54271;SDS011;40184;53.362;5.216;2023-03-14T03:01:18;63.00;;;10.20;;
54271;SDS011;40184;53.362;5.216;2023-03-14T03:03:44;64.32;;;11.60;;
54271;SDS011;40184;53.362;5.216;2023-03-14T03:06:10;69.78;;;12.50;;
54271;SDS011;40184;53.362;5.216;2023-03-14T03:08:36;65.32;;;12.45;;
54271;SDS011;40184;53.362;5.216;2023-03-14T03:11:03;77.43;;;11.40;;
54271;SDS011;40184;53.362;5.216;2023-03-14T03:13:28;69.72;;;12.60;;
54271;SDS011;40184;53.362;5.216;2023-03-14T03:15:54;57.55;;;11.40;;
54271;SDS011;40184;53.362;5.216;2023-03-14T03:18:20;67.18;;;12.50;;
54271;SDS011;40184;53.362;5.216;2023-03-14T03:20:46;56.58;;;11.00;;
54271;SDS011;40184;53.362;5.216;2023-03-14T03:23:12;71.25;;;13.65;;
54271;SDS011;40184;53.362;5.216;2023-03-14T03:25:38;73.72;;;13.20;;
54271;SDS011;40184;53.362;5.216;2023-03-14T03:28:03;76.85;;;12.85;;
54271;SDS011;40184;53.362;5.216;2023-03-14T03:30:33;56.35;;;11.27;;
54271;SDS011;40184;53.362;5.216;2023-03-14T03:33:02;78.75;;;13.27;;
54271;SDS011;40184;53.362;5.216;2023-03-14T03:35:28;66.70;;;12.45;;
54271;SDS011;40184;53.362;5.216;2023-03-14T03:37:53;77.93;;;12.95;;
54271;SDS011;40184;53.362;5.216;2023-03-14T03:40:19;72.60;;;13.40;;
54271;SDS011;40184;53.362;5.216;2023-03-14T03:42:45;56.78;;;9.07;;
54271;SDS011;40184;53.362;5.216;2023-03-14T03:45:10;58.58;;;10.13;;
54271;SDS011;40184;53.362;5.216;2023-03-14T03:47:36;53.28;;;10.13;;
54271;SDS011;40184;53.362;5.216;2023-03-14T03:50:02;57.72;;;10.50;;
54271;SDS011;40184;53.362;5.216;2023-03-14T03:52:28;62.60;;;9.68;;
54271;SDS011;40184;53.362;5.216;2023-03-14T03:54:53;41.92;;;7.88;;
54271;SDS011;40184;53.362;5.216;2023-03-14T03:57:19;37.63;;;6.78;;
54271;SDS011;40184;53.362;5.216;2023-03-14T03:59:45;39.00;;;7.00;;
54271;SDS011;40184;53.362;5.216;2023-03-14T04:02:11;39.10;;;7.13;;
54271;SDS011;40184;53.362;5.216;2023-03-14T04:04:36;40.30;;;7.15;;
54271;SDS011;40184;53.362;5.216;2023-03-14T04:07:03;39.70;;;7.25;;
54271;SDS011;40184;53.362;5.216;2023-03-14T04:09:29;36.38;;;6.20;;
54271;SDS011;40184;53.362;5.216;2023-03-14T04:11:55;37.08;;;8.05;;
54271;SDS011;40184;53.362;5.216;2023-03-14T04:14:21;32.20;;;6.50;;
54271;SDS011;40184;53.362;5.216;2023-03-14T04:16:47;36.50;;;6.95;;
54271;SDS011;40184;53.362;5.216;2023-03-14T04:19:13;38.97;;;6.93;;
54271;SDS011;40184;53.362;5.216;2023-03-14T04:21:39;40.45;;;7.93;;
54271;SDS011;40184;53.362;5.216;2023-03-14T04:24:12;63.50;;;9.00;;
54271;SDS011;40184;53.362;5.216;2023-03-14T04:26:38;53.63;;;9.10;;
54271;SDS011;40184;53.362;5.216;2023-03-14T04:29:03;46.72;;;7.75;;
54271;SDS011;40184;53.362;5.216;2023-03-14T04:31:29;56.58;;;10.80;;
54271;SDS011;40184;53.362;5.216;2023-03-14T04:33:54;60.55;;;9.18;;
54271;SDS011;40184;53.362;5.216;2023-03-14T04:36:20;56.90;;;10.07;;
54271;SDS011;40184;53.362;5.216;2023-03-14T04:38:46;38.85;;;5.10;;
54271;SDS011;40184;53.362;5.216;2023-03-14T04:41:11;28.73;;;4.57;;
54271;SDS011;40184;53.362;5.216;2023-03-14T04:43:37;19.48;;;3.80;;
54271;SDS011;40184;53.362;5.216;2023-03-14T04:46:03;22.95;;;3.03;;
54271;SDS011;40184;53.362;5.216;2023-03-14T04:48:29;16.95;;;2.80;;
54271;SDS011;40184;53.362;5.216;2023-03-14T04:50:55;27.30;;;3.28;;
54271;SDS011;40184;53.362;5.216;2023-03-14T04:53:21;21.75;;;2.60;;
54271;SDS011;40184;53.362;5.216;2023-03-14T04:55:47;29.90;;;4.85;;
54271;SDS011;40184;53.362;5.216;2023-03-14T04:58:14;19.33;;;2.55;;
54271;SDS011;40184;53.362;5.216;2023-03-14T05:00:39;24.63;;;2.80;;
54271;SDS011;40184;53.362;5.216;2023-03-14T05:03:05;30.08;;;3.58;;
54271;SDS011;40184;53.362;5.216;2023-03-14T05:05:31;16.80;;;3.35;;
54271;SDS011;40184;53.362;5.216;2023-03-14T05:07:56;27.45;;;4.15;;
54271;SDS011;40184;53.362;5.216;2023-03-14T05:10:22;20.70;;;3.47;;
54271;SDS011;40184;53.362;5.216;2023-03-14T05:12:48;23.98;;;3.45;;
54271;SDS011;40184;53.362;5.216;2023-03-14T05:15:13;26.65;;;4.07;;
54271;SDS011;40184;53.362;5.216;2023-03-14T05:17:39;22.40;;;4.07;;
54271;SDS011;40184;53.362;5.216;2023-03-14T05:20:04;27.83;;;4.80;;
54271;SDS011;40184;53.362;5.216;2023-03-14T05:22:33;17.15;;;3.25;;
54271;SDS011;40184;53.362;5.216;2023-03-14T05:24:59;32.85;;;9.85;;
54271;SDS011;40184;53.362;5.216;2023-03-14T05:27:25;19.45;;;3.90;;
54271;SDS011;40184;53.362;5.216;2023-03-14T05:29:50;28.95;;;4.07;;
54271;SDS011;40184;53.362;5.216;2023-03-14T05:32:16;15.18;;;2.67;;
54271;SDS011;40184;53.362;5.216;2023-03-14T05:34:42;13.63;;;2.35;;
54271;SDS011;40184;53.362;5.216;2023-03-14T05:37:07;16.08;;;2.40;;
54271;SDS011;40184;53.362;5.216;2023-03-14T05:39:33;11.25;;;2.17;;
54271;SDS011;40184;53.362;5.216;2023-03-14T05:41:58;16.00;;;2.88;;
54271;SDS011;40184;53.362;5.216;2023-03-14T05:44:24;19.77;;;3.28;;
54271;SDS011;40184;53.362;5.216;2023-03-14T05:46:50;12.95;;;2.45;;
54271;SDS011;40184;53.362;5.216;2023-03-14T05:49:15;14.10;;;2.72;;
54271;SDS011;40184;53.362;5.216;2023-03-14T05:51:41;13.05;;;3.60;;
54271;SDS011;40184;53.362;5.216;2023-03-14T05:54:07;24.25;;;3.42;;
54271;SDS011;40184;53.362;5.216;2023-03-14T05:56:32;15.77;;;2.72;;
54271;SDS011;40184;53.362;5.216;2023-03-14T05:58:58;13.07;;;2.65;;
54271;SDS011;40184;53.362;5.216;2023-03-14T06:01:27;11.35;;;1.67;;
54271;SDS011;40184;53.362;5.216;2023-03-14T06:03:53;11.38;;;1.98;;
54271;SDS011;40184;53.362;5.216;2023-03-14T06:06:18;13.48;;;2.03;;
54271;SDS011;40184;53.362;5.216;2023-03-14T06:08:44;14.95;;;2.25;;
54271;SDS011;40184;53.362;5.216;2023-03-14T06:11:10;14.50;;;2.60;;
54271;SDS011;40184;53.362;5.216;2023-03-14T06:13:35;10.25;;;2.65;;
54271;SDS011;40184;53.362;5.216;2023-03-14T06:16:01;13.20;;;2.30;;
54271;SDS011;40184;53.362;5.216;2023-03-14T06:18:27;16.92;;;2.50;;
54271;SDS011;40184;53.362;5.216;2023-03-14T06:20:53;14.48;;;2.55;;
54271;SDS011;40184;53.362;5.216;2023-03-14T06:23:19;16.75;;;2.67;;
54271;SDS011;40184;53.362;5.216;2023-03-14T06:25:45;20.52;;;3.60;;
54271;SDS011;40184;53.362;5.216;2023-03-14T06:28:11;17.25;;;3.25;;
54271;SDS011;40184;53.362;5.216;2023-03-14T06:30:36;21.85;;;5.32;;
54271;SDS011;40184;53.362;5.216;2023-03-14T06:33:02;18.15;;;4.05;;
54271;SDS011;40184;53.362;5.216;2023-03-14T06:35:28;28.42;;;4.47;;
54271;SDS011;40184;53.362;5.216;2023-03-14T06:37:53;23.70;;;5.00;;
54271;SDS011;40184;53.362;5.216;2023-03-14T06:40:19;33.15;;;6.53;;
54271;SDS011;40184;53.362;5.216;2023-03-14T06:42:45;19.08;;;4.68;;
54271;SDS011;40184;53.362;5.216;2023-03-14T06:45:10;24.15;;;5.20;;
54271;SDS011;40184;53.362;5.216;2023-03-14T06:47:36;22.45;;;4.07;;
54271;SDS011;40184;53.362;5.216;2023-03-14T06:50:03;27.85;;;4.55;;
54271;SDS011;40184;53.362;5.216;2023-03-14T06:52:30;24.75;;;4.55;;
54271;SDS011;40184;53.362;5.216;2023-03-14T06:54:56;24.65;;;6.10;;
54271;SDS011;40184;53.362;5.216;2023-03-14T06:57:21;22.73;;;4.18;;
54271;SDS011;40184;53.362;5.216;2023-03-14T06:59:47;27.42;;;4.32;;
54271;SDS011;40184;53.362;5.216;2023-03-14T07:02:13;27.20;;;5.00;;
54271;SDS011;40184;53.362;5.216;2023-03-14T07:04:39;22.70;;;3.95;;
54271;SDS011;40184;53.362;5.216;2023-03-14T07:07:05;24.35;;;4.95;;
54271;SDS011;40184;53.362;5.216;2023-03-14T07:09:31;33.90;;;6.18;;
54271;SDS011;40184;53.362;5.216;2023-03-14T07:11:57;31.38;;;5.13;;
54271;SDS011;40184;53.362;5.216;2023-03-14T07:14:23;32.70;;;5.93;;
54271;SDS011;40184;53.362;5.216;2023-03-14T07:16:49;25.98;;;5.70;;
54271;SDS011;40184;53.362;5.216;2023-03-14T07:19:14;26.90;;;5.95;;
54271;SDS011;40184;53.362;5.216;2023-03-14T07:21:40;25.95;;;5.03;;
54271;SDS011;40184;53.362;5.216;2023-03-14T07:24:06;34.53;;;6.95;;
54271;SDS011;40184;53.362;5.216;2023-03-14T07:26:31;34.38;;;6.90;;
54271;SDS011;40184;53.362;5.216;2023-03-14T07:28:57;43.38;;;7.13;;
54271;SDS011;40184;53.362;5.216;2023-03-14T07:31:23;36.30;;;7.68;;
54271;SDS011;40184;53.362;5.216;2023-03-14T07:33:49;26.85;;;4.10;;
54271;SDS011;40184;53.362;5.216;2023-03-14T07:36:14;26.33;;;5.15;;
54271;SDS011;40184;53.362;5.216;2023-03-14T07:38:40;32.20;;;4.93;;
54271;SDS011;40184;53.362;5.216;2023-03-14T07:41:06;23.15;;;5.40;;
54271;SDS011;40184;53.362;5.216;2023-03-14T07:43:32;30.27;;;5.75;;
54271;SDS011;40184;53.362;5.216;2023-03-14T07:45:58;35.15;;;6.53;;
54271;SDS011;40184;53.362;5.216;2023-03-14T07:48:24;23.88;;;4.95;;
54271;SDS011;40184;53.362;5.216;2023-03-14T07:50:52;29.38;;;5.63;;
54271;SDS011;40184;53.362;5.216;2023-03-14T07:53:19;35.85;;;6.38;;
54271;SDS011;40184;53.362;5.216;2023-03-14T07:55:44;32.83;;;5.95;;
54271;SDS011;40184;53.362;5.216;2023-03-14T07:58:11;35.15;;;6.93;;
54271;SDS011;40184;53.362;5.216;2023-03-14T08:00:37;21.90;;;4.65;;
54271;SDS011;40184;53.362;5.216;2023-03-14T08:03:02;23.85;;;4.97;;
54271;SDS011;40184;53.362;5.216;2023-03-14T08:05:28;30.15;;;5.68;;
54271;SDS011;40184;53.362;5.216;2023-03-14T08:07:54;24.23;;;5.35;;
54271;SDS011;40184;53.362;5.216;2023-03-14T08:10:19;18.98;;;4.60;;
54271;SDS011;40184;53.362;5.216;2023-03-14T08:12:48;27.33;;;6.28;;
54271;SDS011;40184;53.362;5.216;2023-03-14T08:15:15;27.70;;;5.18;;
54271;SDS011;40184;53.362;5.216;2023-03-14T08:17:41;27.80;;;5.35;;
54271;SDS011;40184;53.362;5.216;2023-03-14T08:20:07;27.15;;;5.25;;
54271;SDS011;40184;53.362;5.216;2023-03-14T08:22:35;29.55;;;7.07;;
54271;SDS011;40184;53.362;5.216;2023-03-14T08:25:01;25.60;;;5.55;;
54271;SDS011;40184;53.362;5.216;2023-03-14T08:27:27;26.48;;;4.47;;
54271;SDS011;40184;53.362;5.216;2023-03-14T08:29:53;34.47;;;5.63;;
54271;SDS011;40184;53.362;5.216;2023-03-14T08:32:19;36.90;;;6.55;;
54271;SDS011;40184;53.362;5.216;2023-03-14T08:34:45;29.23;;;5.53;;
54271;SDS011;40184;53.362;5.216;2023-03-14T08:37:11;40.10;;;6.38;;
54271;SDS011;40184;53.362;5.216;2023-03-14T08:39:36;37.97;;;6.72;;
54271;SDS011;40184;53.362;5.216;2023-03-14T08:42:02;37.53;;;7.75;;
54271;SDS011;40184;53.362;5.216;2023-03-14T08:44:28;27.00;;;6.10;;
54271;SDS011;40184;53.362;5.216;2023-03-14T08:46:54;26.40;;;5.20;;
54271;SDS011;40184;53.362;5.216;2023-03-14T08:49:20;35.20;;;5.63;;
54271;SDS011;40184;53.362;5.216;2023-03-14T08:51:45;36.33;;;6.50;;
54271;SDS011;40184;53.362;5.216;2023-03-14T08:54:11;30.95;;;6.10;;
54271;SDS011;40184;53.362;5.216;2023-03-14T08:56:37;25.20;;;4.05;;
54271;SDS011;40184;53.362;5.216;2023-03-14T08:59:05;25.10;;;5.80;;
54271;SDS011;40184;53.362;5.216;2023-03-14T09:01:31;30.58;;;5.10;;
54271;SDS011;40184;53.362;5.216;2023-03-14T09:03:57;32.92;;;5.80;;
54271;SDS011;40184;53.362;5.216;2023-03-14T09:06:22;20.95;;;4.32;;
54271;SDS011;40184;53.362;5.216;2023-03-14T09:08:48;30.00;;;5.43;;
54271;SDS011;40184;53.362;5.216;2023-03-14T09:11:14;25.13;;;4.88;;
54271;SDS011;40184;53.362;5.216;2023-03-14T09:13:39;29.90;;;5.82;;
54271;SDS011;40184;53.362;5.216;2023-03-14T09:16:06;33.00;;;7.45;;
54271;SDS011;40184;53.362;5.216;2023-03-14T09:18:33;24.15;;;5.03;;
54271;SDS011;40184;53.362;5.216;2023-03-14T09:20:58;29.60;;;5.53;;
54271;SDS011;40184;53.362;5.216;2023-03-14T09:23:24;25.27;;;4.72;;
54271;SDS011;40184;53.362;5.216;2023-03-14T09:25:54;38.35;;;5.22;;
54271;SDS011;40184;53.362;5.216;2023-03-14T09:28:23;22.48;;;4.18;;
54271;SDS011;40184;53.362;5.216;2023-03-14T09:30:49;27.70;;;3.83;;
54271;SDS011;40184;53.362;5.216;2023-03-14T09:33:15;21.58;;;4.53;;
54271;SDS011;40184;53.362;5.216;2023-03-14T09:35:41;19.20;;;3.28;;
54271;SDS011;40184;53.362;5.216;2023-03-14T09:38:07;24.77;;;4.93;;
54271;SDS011;40184;53.362;5.216;2023-03-14T09:40:36;15.00;;;3.53;;
54271;SDS011;40184;53.362;5.216;2023-03-14T09:43:03;17.05;;;3.65;;
54271;SDS011;40184;53.362;5.216;2023-03-14T09:45:31;21.15;;;3.80;;
54271;SDS011;40184;53.362;5.216;2023-03-14T09:48:01;13.75;;;3.05;;
54271;SDS011;40184;53.362;5.216;2023-03-14T09:50:45;19.48;;;3.30;;
54271;SDS011;40184;53.362;5.216;2023-03-14T09:53:16;22.98;;;4.07;;
54271;SDS011;40184;53.362;5.216;2023-03-14T09:55:45;25.85;;;4.00;;
54271;SDS011;40184;53.362;5.216;2023-03-14T09:58:13;29.02;;;4.75;;
54271;SDS011;40184;53.362;5.216;2023-03-14T10:00:43;22.67;;;4.53;;
54271;SDS011;40184;53.362;5.216;2023-03-14T10:05:38;16.42;;;3.35;;
54271;SDS011;40184;53.362;5.216;2023-03-14T10:08:10;17.85;;;4.00;;
54271;SDS011;40184;53.362;5.216;2023-03-14T10:10:36;17.75;;;3.35;;
54271;SDS011;40184;53.362;5.216;2023-03-14T10:15:46;10.07;;;2.67;;
54271;SDS011;40184;53.362;5.216;2023-03-14T10:18:34;15.77;;;2.43;;
54271;SDS011;40184;53.362;5.216;2023-03-14T10:21:02;12.82;;;3.75;;
54271;SDS011;40184;53.362;5.216;2023-03-14T10:23:30;16.67;;;3.75;;
54271;SDS011;40184;53.362;5.216;2023-03-14T10:28:44;25.02;;;8.82;;
54271;SDS011;40184;53.362;5.216;2023-03-14T10:31:10;15.30;;;3.67;;
54271;SDS011;40184;53.362;5.216;2023-03-14T10:33:36;11.48;;;2.30;;
54271;SDS011;40184;53.362;5.216;2023-03-14T10:36:22;12.15;;;2.50;;
54271;SDS011;40184;53.362;5.216;2023-03-14T10:38:56;22.15;;;3.88;;
54271;SDS011;40184;53.362;5.216;2023-03-14T10:41:30;19.70;;;4.95;;
54271;SDS011;40184;53.362;5.216;2023-03-14T10:43:57;45.92;;;17.20;;
54271;SDS011;40184;53.362;5.216;2023-03-14T10:46:25;85.40;;;24.77;;
54271;SDS011;40184;53.362;5.216;2023-03-14T10:48:56;28.73;;;7.03;;
54271;SDS011;40184;53.362;5.216;2023-03-14T10:51:26;18.02;;;3.65;;
54271;SDS011;40184;53.362;5.216;2023-03-14T10:53:57;12.43;;;2.83;;
54271;SDS011;40184;53.362;5.216;2023-03-14T10:56:24;18.42;;;3.13;;
54271;SDS011;40184;53.362;5.216;2023-03-14T10:58:54;14.93;;;4.07;;
54271;SDS011;40184;53.362;5.216;2023-03-14T11:07:31;25.20;;;8.80;;
54271;SDS011;40184;53.362;5.216;2023-03-14T11:10:39;14.25;;;3.90;;
54271;SDS011;40184;53.362;5.216;2023-03-14T11:27:16;18.50;;;3.97;;
54271;SDS011;40184;53.362;5.216;2023-03-14T11:35:17;13.88;;;3.10;;
54271;SDS011;40184;53.362;5.216;2023-03-14T11:38:03;20.38;;;3.35;;
54271;SDS011;40184;53.362;5.216;2023-03-14T11:40:37;15.63;;;2.53;;
54271;SDS011;40184;53.362;5.216;2023-03-14T11:43:15;13.93;;;3.30;;
54271;SDS011;40184;53.362;5.216;2023-03-14T11:45:45;16.77;;;3.67;;
54271;SDS011;40184;53.362;5.216;2023-03-14T11:51:01;15.00;;;2.58;;
54271;SDS011;40184;53.362;5.216;2023-03-14T11:56:04;12.98;;;3.00;;
54271;SDS011;40184;53.362;5.216;2023-03-14T11:58:59;21.00;;;3.78;;
54271;SDS011;40184;53.362;5.216;2023-03-14T12:02:16;13.63;;;2.85;;
54271;SDS011;40184;53.362;5.216;2023-03-14T12:04:22;12.50;;;3.22;;
54271;SDS011;40184;53.362;5.216;2023-03-14T12:07:08;15.88;;;2.88;;
54271;SDS011;40184;53.362;5.216;2023-03-14T12:09:42;17.88;;;3.20;;
54271;SDS011;40184;53.362;5.216;2023-03-14T12:12:10;15.00;;;2.75;;
54271;SDS011;40184;53.362;5.216;2023-03-14T12:14:45;12.65;;;2.35;;
54271;SDS011;40184;53.362;5.216;2023-03-14T12:17:19;13.93;;;3.58;;
54271;SDS011;40184;53.362;5.216;2023-03-14T12:20:00;8.63;;;2.55;;
54271;SDS011;40184;53.362;5.216;2023-03-14T12:22:33;10.70;;;2.95;;
54271;SDS011;40184;53.362;5.216;2023-03-14T12:25:13;13.05;;;2.25;;
54271;SDS011;40184;53.362;5.216;2023-03-14T12:27:45;15.80;;;2.78;;
54271;SDS011;40184;53.362;5.216;2023-03-14T12:30:34;11.90;;;2.95;;
54271;SDS011;40184;53.362;5.216;2023-03-14T12:35:46;11.82;;;2.22;;
54271;SDS011;40184;53.362;5.216;2023-03-14T12:38:18;15.02;;;3.13;;
54271;SDS011;40184;53.362;5.216;2023-03-14T12:41:00;19.63;;;3.85;;
54271;SDS011;40184;53.362;5.216;2023-03-14T12:43:35;10.68;;;2.83;;
54271;SDS011;40184;53.362;5.216;2023-03-14T12:46:15;10.38;;;1.83;;
54271;SDS011;40184;53.362;5.216;2023-03-14T12:49:08;9.88;;;3.03;;
54271;SDS011;40184;53.362;5.216;2023-03-14T12:51:40;14.13;;;3.08;;
54271;SDS011;40184;53.362;5.216;2023-03-14T12:54:26;7.60;;;2.30;;
54271;SDS011;40184;53.362;5.216;2023-03-14T12:57:36;11.05;;;2.35;;
54271;SDS011;40184;53.362;5.216;2023-03-14T13:02:55;22.90;;;3.70;;
54271;SDS011;40184;53.362;5.216;2023-03-14T13:05:54;15.43;;;2.85;;
54271;SDS011;40184;53.362;5.216;2023-03-14T13:11:10;9.55;;;2.60;;
54271;SDS011;40184;53.362;5.216;2023-03-14T13:13:45;8.40;;;2.28;;
54271;SDS011;40184;53.362;5.216;2023-03-14T13:16:15;13.60;;;2.80;;
54271;SDS011;40184;53.362;5.216;2023-03-14T13:18:47;13.13;;;2.42;;
54271;SDS011;40184;53.362;5.216;2023-03-14T13:24:00;13.43;;;2.88;;
54271;SDS011;40184;53.362;5.216;2023-03-14T13:26:32;15.02;;;2.33;;
54271;SDS011;40184;53.362;5.216;2023-03-14T13:29:08;8.27;;;2.03;;
54271;SDS011;40184;53.362;5.216;2023-03-14T13:31:54;13.50;;;2.38;;
54271;SDS011;40184;53.362;5.216;2023-03-14T13:34:30;22.17;;;3.22;;
54271;SDS011;40184;53.362;5.216;2023-03-14T13:36:58;19.45;;;4.88;;
54271;SDS011;40184;53.362;5.216;2023-03-14T13:39:25;18.05;;;3.28;;
54271;SDS011;40184;53.362;5.216;2023-03-14T13:41:53;16.58;;;3.45;;
54271;SDS011;40184;53.362;5.216;2023-03-14T13:44:35;22.83;;;3.85;;
54271;SDS011;40184;53.362;5.216;2023-03-14T13:47:04;14.05;;;4.78;;
54271;SDS011;40184;53.362;5.216;2023-03-14T13:49:34;24.33;;;2.97;;
54271;SDS011;40184;53.362;5.216;2023-03-14T13:52:03;14.65;;;3.20;;
54271;SDS011;40184;53.362;5.216;2023-03-14T13:54:46;18.80;;;4.18;;
54271;SDS011;40184;53.362;5.216;2023-03-14T13:57:11;22.88;;;3.70;;
54271;SDS011;40184;53.362;5.216;2023-03-14T13:59:37;18.35;;;2.72;;
54271;SDS011;40184;53.362;5.216;2023-03-14T14:02:14;14.32;;;3.35;;
54271;SDS011;40184;53.362;5.216;2023-03-14T14:04:40;11.75;;;2.67;;
54271;SDS011;40184;53.362;5.216;2023-03-14T14:07:07;5.88;;;2.13;;
54271;SDS011;40184;53.362;5.216;2023-03-14T14:12:31;14.77;;;2.75;;
54271;SDS011;40184;53.362;5.216;2023-03-14T14:15:04;10.82;;;2.53;;
54271;SDS011;40184;53.362;5.216;2023-03-14T14:17:38;11.15;;;2.92;;
54271;SDS011;40184;53.362;5.216;2023-03-14T14:20:08;14.05;;;3.17;;
54271;SDS011;40184;53.362;5.216;2023-03-14T14:23:03;26.00;;;3.17;;
54271;SDS011;40184;53.362;5.216;2023-03-14T14:25:30;21.88;;;3.13;;
54271;SDS011;40184;53.362;5.216;2023-03-14T14:27:56;12.18;;;2.72;;
54271;SDS011;40184;53.362;5.216;2023-03-14T14:30:32;10.50;;;2.72;;
54271;SDS011;40184;53.362;5.216;2023-03-14T14:35:50;12.90;;;2.90;;
54271;SDS011;40184;53.362;5.216;2023-03-14T14:38:20;22.38;;;3.58;;
54271;SDS011;40184;53.362;5.216;2023-03-14T14:40:51;25.77;;;4.28;;
54271;SDS011;40184;53.362;5.216;2023-03-14T14:43:26;19.95;;;4.32;;
54271;SDS011;40184;53.362;5.216;2023-03-14T14:45:53;17.10;;;3.38;;
54271;SDS011;40184;53.362;5.216;2023-03-14T14:48:25;14.80;;;2.60;;
54271;SDS011;40184;53.362;5.216;2023-03-14T14:53:31;15.90;;;3.33;;
54271;SDS011;40184;53.362;5.216;2023-03-14T14:56:25;12.45;;;2.85;;
54271;SDS011;40184;53.362;5.216;2023-03-14T14:58:56;12.73;;;3.58;;
54271;SDS011;40184;53.362;5.216;2023-03-14T15:01:23;23.75;;;4.03;;
54271;SDS011;40184;53.362;5.216;2023-03-14T15:03:55;15.93;;;3.00;;
54271;SDS011;40184;53.362;5.216;2023-03-14T15:06:21;8.43;;;2.25;;
54271;SDS011;40184;53.362;5.216;2023-03-14T15:08:49;15.20;;;3.67;;
54271;SDS011;40184;53.362;5.216;2023-03-14T15:11:18;17.23;;;2.63;;
54271;SDS011;40184;53.362;5.216;2023-03-14T15:13:49;11.57;;;3.03;;
54271;SDS011;40184;53.362;5.216;2023-03-14T15:16:15;18.05;;;4.40;;
54271;SDS011;40184;53.362;5.216;2023-03-14T15:18:43;17.38;;;3.33;;
54271;SDS011;40184;53.362;5.216;2023-03-14T15:21:11;13.48;;;2.67;;
54271;SDS011;40184;53.362;5.216;2023-03-14T15:23:36;14.15;;;2.08;;
54271;SDS011;40184;53.362;5.216;2023-03-14T15:26:02;23.35;;;4.05;;
54271;SDS011;40184;53.362;5.216;2023-03-14T15:28:36;12.35;;;4.00;;
54271;SDS011;40184;53.362;5.216;2023-03-14T15:31:02;17.60;;;4.03;;
54271;SDS011;40184;53.362;5.216;2023-03-14T15:33:27;7.22;;;2.53;;
54271;SDS011;40184;53.362;5.216;2023-03-14T15:35:53;13.98;;;2.80;;
54271;SDS011;40184;53.362;5.216;2023-03-14T15:38:20;18.05;;;3.50;;
54271;SDS011;40184;53.362;5.216;2023-03-14T15:40:48;29.27;;;8.90;;
54271;SDS011;40184;53.362;5.216;2023-03-14T15:43:14;25.80;;;9.10;;
54271;SDS011;40184;53.362;5.216;2023-03-14T15:45:40;11.52;;;3.47;;
54271;SDS011;40184;53.362;5.216;2023-03-14T15:48:06;10.45;;;2.42;;